createdAt,value
2022-10-15T00:03:47.153Z,92.5
2022-10-15T00:08:47.043Z,92.5
2022-10-15T00:13:47.053Z,92.5
2022-10-15T00:18:47.053Z,92.5
2022-10-15T00:23:47.065Z,92.5
2022-10-15T00:28:47.124Z,92.5
2022-10-15T00:33:47.066Z,92.5
2022-10-15T00:38:47.070Z,92.5
2022-10-15T00:43:47.079Z,92.5
2022-10-15T00:48:47.062Z,92.5
2022-10-15T00:53:47.078Z,92.5
2022-10-15T00:58:47.069Z,92.5
2022-10-15T01:03:47.091Z,92.5
2022-10-15T01:08:47.075Z,92.5
2022-10-15T01:13:47.074Z,92.5
2022-10-15T01:18:47.100Z,93.0
2022-10-15T01:23:47.085Z,93.0
2022-10-15T01:28:47.145Z,93.5
2022-10-15T01:33:47.090Z,93.5
2022-10-15T01:38:47.097Z,93.5
2022-10-15T01:43:47.114Z,94.0
2022-10-15T01:48:47.101Z,94.0
2022-10-15T01:53:47.122Z,94.5
2022-10-15T01:58:47.113Z,94.5
2022-10-15T02:03:47.112Z,94.5
2022-10-15T02:08:47.114Z,94.5
2022-10-15T02:13:47.122Z,95.0
2022-10-15T02:18:47.123Z,95.0
2022-10-15T02:23:47.125Z,95.0
2022-10-15T02:28:47.191Z,95.0
2022-10-15T02:33:47.134Z,95.0
2022-10-15T02:38:47.136Z,95.0
2022-10-15T02:43:47.298Z,95.0
2022-10-15T02:48:47.156Z,95.0
2022-10-15T02:53:47.167Z,95.0
2022-10-15T02:58:47.147Z,95.0
2022-10-15T03:03:47.147Z,95.0
2022-10-15T03:08:47.178Z,94.5
2022-10-15T03:13:47.155Z,95.0
2022-10-15T03:18:47.168Z,94.5
2022-10-15T03:23:47.173Z,94.5
2022-10-15T03:28:47.214Z,94.5
2022-10-15T03:33:47.174Z,94.0
2022-10-15T03:38:47.176Z,94.0
2022-10-15T03:43:47.180Z,94.5
2022-10-15T03:48:47.176Z,94.5
2022-10-15T03:53:47.179Z,94.5
2022-10-15T03:58:47.180Z,94.5
2022-10-15T04:03:47.187Z,94.5
2022-10-15T04:08:47.236Z,94.5
2022-10-15T04:13:47.193Z,94.5
2022-10-15T04:18:47.190Z,94.5
2022-10-15T04:23:47.199Z,94.5
2022-10-15T04:28:47.293Z,95.0
2022-10-15T04:33:47.208Z,95.0
2022-10-15T04:38:47.208Z,95.0
2022-10-15T04:43:47.202Z,95.0
2022-10-15T04:48:47.201Z,95.0
2022-10-15T04:53:47.214Z,95.0
2022-10-15T04:58:47.213Z,95.0
2022-10-15T05:03:47.247Z,95.0
2022-10-15T05:08:47.218Z,95.0
2022-10-15T05:13:47.251Z,95.0
2022-10-15T05:18:47.228Z,95.0
2022-10-15T05:23:47.230Z,95.0
2022-10-15T05:28:47.275Z,95.5
2022-10-15T05:33:47.239Z,95.5
2022-10-15T05:38:47.238Z,95.5
2022-10-15T05:43:47.245Z,95.5
2022-10-15T05:48:47.273Z,95.5
2022-10-15T05:53:47.248Z,95.5
2022-10-15T05:58:47.252Z,95.5
2022-10-15T06:03:47.261Z,95.5
2022-10-15T06:08:47.259Z,95.5
2022-10-15T06:13:47.247Z,95.5
2022-10-15T06:18:47.260Z,95.5
2022-10-15T06:23:47.269Z,95.5
2022-10-15T06:28:47.372Z,95.5
2022-10-15T06:33:47.276Z,95.5
2022-10-15T06:38:47.272Z,95.5
2022-10-15T06:43:47.314Z,95.5
2022-10-15T06:48:47.282Z,95.5
2022-10-15T06:53:47.282Z,95.5
2022-10-15T06:58:47.296Z,95.0
2022-10-15T07:03:47.296Z,95.0
2022-10-15T07:08:47.289Z,95.0
2022-10-15T07:13:47.297Z,95.0
2022-10-15T07:18:47.459Z,95.0
2022-10-15T07:23:47.308Z,95.0
2022-10-15T07:28:47.359Z,95.0
2022-10-15T07:33:47.304Z,94.5
2022-10-15T07:38:47.309Z,94.5
2022-10-15T07:43:47.323Z,94.5
2022-10-15T07:48:47.324Z,94.5
2022-10-15T07:53:47.327Z,94.5
2022-10-15T07:58:47.324Z,94.5
2022-10-15T08:03:47.341Z,94.5
2022-10-15T08:08:47.348Z,94.5
2022-10-15T08:13:47.338Z,94.0
2022-10-15T08:18:47.409Z,94.0
2022-10-15T08:23:47.342Z,94.0
2022-10-15T08:28:47.386Z,94.5
2022-10-15T08:33:47.361Z,94.5
2022-10-15T08:38:47.357Z,94.0
2022-10-15T08:43:47.359Z,93.5
2022-10-15T08:48:47.358Z,93.0
2022-10-15T08:53:47.367Z,93.0
2022-10-15T08:58:47.364Z,92.5
2022-10-15T09:03:47.368Z,92.0
2022-10-15T09:08:47.377Z,91.5
2022-10-15T09:13:47.379Z,91.5
2022-10-15T09:23:47.394Z,90.0
2022-10-15T09:28:47.452Z,90.0
2022-10-15T09:33:47.390Z,89.5
2022-10-15T09:38:47.417Z,89.0
2022-10-15T09:43:47.392Z,89.0
2022-10-15T09:48:47.392Z,88.5
2022-10-15T09:53:47.400Z,88.0
2022-10-15T09:58:47.413Z,89.0
2022-10-15T10:03:47.406Z,89.0
2022-10-15T10:13:47.420Z,90.0
2022-10-15T10:18:47.416Z,90.0
2022-10-15T10:23:47.417Z,90.5
2022-10-15T10:28:47.461Z,91.0
2022-10-15T10:33:47.422Z,91.0
2022-10-15T10:38:47.433Z,91.5
2022-10-15T10:43:47.433Z,91.5
2022-10-15T10:48:47.433Z,92.0
2022-10-15T10:53:47.440Z,92.5
2022-10-15T10:58:47.436Z,92.5
2022-10-15T11:03:47.443Z,93.0
2022-10-15T11:08:47.447Z,93.0
2022-10-15T11:13:47.449Z,93.0
2022-10-15T11:18:47.455Z,93.0
2022-10-15T11:23:47.452Z,93.0
2022-10-15T11:28:47.523Z,93.0
2022-10-15T11:33:47.471Z,93.5
2022-10-15T11:38:47.463Z,93.5
2022-10-15T11:43:47.461Z,93.5
2022-10-15T11:48:47.471Z,93.5
2022-10-15T11:53:47.483Z,93.5
2022-10-15T11:58:47.550Z,93.5
2022-10-15T12:03:47.503Z,93.5
2022-10-15T12:08:47.485Z,93.5
2022-10-15T12:13:47.484Z,93.5
2022-10-15T12:18:47.496Z,94.0
2022-10-15T12:23:47.501Z,94.0
2022-10-15T12:28:47.556Z,94.0
2022-10-15T12:33:47.505Z,94.0
2022-10-15T12:38:47.506Z,94.5
2022-10-15T12:43:47.508Z,94.5
2022-10-15T12:48:47.514Z,94.0
2022-10-15T12:53:47.524Z,94.0
2022-10-15T12:58:47.520Z,94.0
2022-10-15T13:03:47.529Z,93.5
2022-10-15T13:08:47.525Z,93.0
2022-10-15T13:13:47.534Z,92.5
2022-10-15T13:18:47.543Z,92.5
2022-10-15T13:23:47.567Z,91.5
2022-10-15T13:28:47.646Z,90.5
2022-10-15T13:33:47.543Z,90.5
2022-10-15T13:38:47.554Z,90.0
2022-10-15T13:43:47.586Z,89.5
2022-10-15T13:48:47.552Z,89.0
2022-10-15T13:53:47.559Z,89.0
2022-10-15T13:58:47.558Z,88.5
2022-10-15T14:03:47.562Z,88.5
2022-10-15T14:08:47.567Z,87.5
2022-10-15T14:13:47.592Z,86.5
2022-10-15T14:18:49.297Z,85.5
2022-10-15T14:23:47.595Z,82.5
2022-10-15T14:28:47.606Z,81.5
2022-10-15T14:33:47.587Z,80.0
2022-10-15T14:38:47.590Z,80.0
2022-10-15T14:43:47.597Z,79.5
2022-10-15T14:48:47.596Z,79.0
2022-10-15T14:53:47.611Z,78.0
2022-10-15T14:58:47.592Z,78.0
2022-10-15T15:03:47.593Z,77.5
2022-10-15T15:08:47.598Z,76.0
2022-10-15T15:13:47.604Z,76.0
2022-10-15T15:18:47.615Z,76.0
2022-10-15T15:23:47.610Z,75.0
2022-10-15T15:28:47.663Z,74.5
2022-10-15T15:33:47.610Z,74.0
2022-10-15T15:38:47.613Z,74.0
2022-10-15T15:43:47.614Z,74.0
2022-10-15T15:48:47.619Z,74.5
2022-10-15T15:53:47.622Z,75.0
2022-10-15T15:58:47.624Z,75.5
2022-10-15T16:03:47.637Z,75.0
2022-10-15T16:08:47.621Z,75.0
2022-10-15T16:13:47.629Z,75.5
2022-10-15T16:18:47.632Z,75.5
2022-10-15T16:23:47.672Z,75.5
2022-10-15T16:28:47.683Z,76.0
2022-10-15T16:33:47.644Z,76.0
2022-10-15T16:38:47.657Z,76.5
2022-10-15T16:43:47.654Z,76.5
2022-10-15T16:48:47.642Z,76.5
2022-10-15T16:53:47.643Z,77.0
2022-10-15T16:58:47.649Z,77.0
2022-10-15T17:03:47.650Z,77.5
2022-10-15T17:08:47.643Z,78.0
2022-10-15T17:13:47.650Z,78.0
2022-10-15T17:18:47.753Z,78.5
2022-10-15T17:23:47.656Z,78.5
2022-10-15T17:28:47.662Z,78.5
2022-10-15T17:33:47.663Z,78.5
2022-10-15T17:38:47.665Z,78.5
2022-10-15T17:43:47.666Z,79.0
2022-10-15T17:48:47.662Z,79.0
2022-10-15T17:53:47.679Z,79.0
2022-10-15T17:58:47.669Z,79.0
2022-10-15T18:03:47.681Z,78.5
2022-10-15T18:08:47.674Z,79.0
2022-10-15T18:13:47.684Z,79.0
2022-10-15T18:18:47.685Z,79.5
2022-10-15T18:23:47.687Z,79.5
2022-10-15T18:28:47.796Z,80.0
2022-10-15T18:33:47.687Z,80.0
2022-10-15T18:38:47.689Z,80.0
2022-10-15T18:43:47.693Z,80.5
2022-10-15T18:48:47.694Z,81.0
2022-10-15T18:53:47.696Z,81.0
2022-10-15T18:58:47.703Z,81.0
2022-10-15T19:03:47.704Z,81.0
2022-10-15T19:08:47.753Z,81.5
2022-10-15T19:13:47.711Z,81.5
2022-10-15T19:18:47.713Z,81.5
2022-10-15T19:23:47.720Z,81.5
2022-10-15T19:28:47.762Z,82.0
2022-10-15T19:33:47.715Z,82.0
2022-10-15T19:38:47.736Z,82.0
2022-10-15T19:43:47.730Z,82.5
2022-10-15T19:48:47.728Z,82.0
2022-10-15T19:53:47.732Z,82.5
2022-10-15T19:58:47.730Z,82.5
2022-10-15T20:03:47.742Z,82.5
2022-10-15T20:08:47.737Z,83.0
2022-10-15T20:13:47.739Z,83.0
2022-10-15T20:18:47.742Z,83.0
2022-10-15T20:23:47.741Z,83.0
2022-10-15T20:28:47.819Z,83.0
2022-10-15T20:33:47.755Z,82.5
2022-10-15T20:38:47.755Z,82.5
2022-10-15T20:43:47.765Z,82.5
2022-10-15T20:48:47.762Z,82.5
2022-10-15T20:53:47.782Z,82.5
2022-10-15T20:58:47.762Z,82.5
2022-10-15T21:03:47.807Z,82.5
2022-10-15T21:08:47.775Z,82.5
2022-10-15T21:13:47.770Z,83.0
2022-10-15T21:18:47.773Z,83.0
2022-10-15T21:23:47.776Z,83.0
2022-10-15T21:28:47.880Z,83.0
2022-10-15T21:33:47.783Z,83.0
2022-10-15T21:38:47.798Z,83.5
2022-10-15T21:43:47.785Z,83.0
2022-10-15T21:48:47.797Z,83.5
2022-10-15T21:53:47.805Z,83.5
2022-10-15T21:58:47.800Z,83.5
2022-10-15T22:03:47.814Z,83.5
2022-10-15T22:08:47.802Z,83.5
2022-10-15T22:13:47.804Z,83.5
2022-10-15T22:18:47.809Z,83.5
2022-10-15T22:23:47.813Z,83.5
2022-10-15T22:28:47.890Z,83.5
2022-10-15T22:33:47.812Z,84.0
2022-10-15T22:38:47.870Z,84.0
2022-10-15T22:43:47.834Z,84.0
2022-10-15T22:48:47.846Z,84.5
2022-10-15T22:53:47.823Z,84.5
2022-10-15T22:58:47.831Z,84.5
2022-10-15T23:03:47.832Z,84.5
2022-10-15T23:08:47.839Z,84.5
2022-10-15T23:13:47.850Z,85.0
2022-10-15T23:18:47.838Z,85.0
2022-10-15T23:23:47.847Z,85.0
2022-10-15T23:28:47.954Z,85.0
2022-10-15T23:33:47.849Z,85.5
2022-10-15T23:38:47.857Z,85.5
2022-10-15T23:43:47.857Z,85.5
2022-10-15T23:48:47.859Z,86.0
2022-10-15T23:53:47.861Z,86.0
2022-10-15T23:58:47.861Z,86.0
